Time;durP1;ratioP1;P1;durP2;ratioP2;P2;SDS_P1;SDS_P2;PMS_P1;PMS_P2;Temp;Humidity;BMP_temperature;BMP_pressure;BME280_temperature;BME280_humidity;BME280_pressure;Samples;Min_cycle;Max_cycle;Signal;HPM_P1;HPM_P2
2022/07/09 00:01:29;;;;;;;4.33;3.53;;;15.00;99.90;;;;;;4977781;28;20343;-66
2022/07/09 00:03:55;;;;;;;5.73;3.37;;;15.00;99.90;;;;;;4974133;28;20180;-66
2022/07/09 00:06:20;;;;;;;3.27;3.00;;;15.00;99.90;;;;;;4982015;28;20172;-66
2022/07/09 00:08:46;;;;;;;3.33;3.00;;;14.90;99.90;;;;;;4972615;28;20435;-66
2022/07/09 00:11:11;;;;;;;4.47;4.07;;;14.90;99.90;;;;;;4980722;28;20175;-66
2022/07/09 00:13:36;;;;;;;4.00;3.20;;;14.90;99.90;;;;;;4973395;28;20260;-66
2022/07/09 00:16:02;;;;;;;3.33;3.03;;;14.80;99.90;;;;;;4973572;28;20540;-66
2022/07/09 00:18:28;;;;;;;4.90;3.80;;;14.80;99.90;;;;;;4973945;28;20737;-66
2022/07/09 00:20:55;;;;;;;4.93;2.87;;;14.80;99.90;;;;;;4972752;28;20670;-66
2022/07/09 00:23:20;;;;;;;5.33;3.83;;;14.80;99.90;;;;;;4973314;28;20179;-66
2022/07/09 00:25:46;;;;;;;7.30;4.10;;;14.70;99.90;;;;;;4973678;28;20435;-66
2022/07/09 00:28:11;;;;;;;4.67;3.53;;;14.70;99.90;;;;;;4972303;28;20195;-66
2022/07/09 00:30:37;;;;;;;4.93;3.40;;;14.70;99.90;;;;;;4971957;28;20311;-66
2022/07/09 00:33:03;;;;;;;4.27;3.57;;;14.60;99.90;;;;;;4970942;28;20239;-66
2022/07/09 00:35:29;;;;;;;4.63;3.50;;;14.60;99.90;;;;;;4972693;28;20552;-66
2022/07/09 00:37:54;;;;;;;4.57;3.60;;;14.60;99.90;;;;;;4978399;28;20590;-66
2022/07/09 00:40:20;;;;;;;4.33;3.53;;;14.60;99.90;;;;;;4971113;28;20279;-66
2022/07/09 00:42:45;;;;;;;5.03;3.87;;;14.60;99.90;;;;;;4971218;28;20184;-66
2022/07/09 00:45:11;;;;;;;4.17;3.50;;;14.60;99.90;;;;;;4973254;28;20184;-66
2022/07/09 00:47:36;;;;;;;3.80;3.50;;;14.50;99.90;;;;;;4980198;28;20652;-66
2022/07/09 00:50:03;;;;;;;5.37;3.33;;;14.60;99.90;;;;;;4972144;28;20249;-66
2022/07/09 00:52:30;;;;;;;4.60;3.80;;;14.50;99.90;;;;;;4983222;28;20275;-66
2022/07/09 00:54:59;;;;;;;5.10;4.00;;;14.40;99.90;;;;;;4981517;28;20503;-66
2022/07/09 00:57:25;;;;;;;4.10;3.70;;;14.40;99.90;;;;;;4973764;28;20963;-66
2022/07/09 00:59:51;;;;;;;4.33;3.93;;;14.30;99.90;;;;;;4976220;28;20474;-66
2022/07/09 01:02:18;;;;;;;4.00;3.80;;;14.30;99.90;;;;;;4976352;28;20176;-66
2022/07/09 01:04:43;;;;;;;6.33;3.33;;;14.30;99.90;;;;;;4975953;28;20438;-66
2022/07/09 01:07:09;;;;;;;11.00;3.70;;;14.30;99.90;;;;;;4974566;28;20446;-66
2022/07/09 01:09:35;;;;;;;4.13;3.30;;;14.30;99.90;;;;;;4971098;28;20243;-66
2022/07/09 01:12:01;;;;;;;4.60;4.20;;;14.40;99.90;;;;;;4972022;28;20279;-66
2022/07/09 01:14:27;;;;;;;4.57;4.20;;;14.40;99.90;;;;;;4972985;28;20194;-66
2022/07/09 01:17:05;;;;;;;3.50;3.20;;;14.30;99.90;;;;;;4971678;28;20442;-66
2022/07/09 01:19:32;;;;;;;4.07;3.50;;;14.20;99.90;;;;;;4977279;28;20463;-66
2022/07/09 01:21:58;;;;;;;3.83;3.40;;;14.20;99.90;;;;;;4972656;28;20433;-66
2022/07/09 01:24:25;;;;;;;4.27;3.93;;;14.20;99.90;;;;;;4976507;28;20498;-66
2022/07/09 01:26:52;;;;;;;4.40;3.93;;;14.30;99.90;;;;;;4976584;28;20457;-66
2022/07/09 01:29:18;;;;;;;5.07;3.90;;;14.30;99.90;;;;;;4974218;28;20487;-66
2022/07/09 01:31:43;;;;;;;5.70;4.07;;;14.30;99.90;;;;;;4972414;28;20436;-66
2022/07/09 01:34:09;;;;;;;4.70;4.30;;;14.30;99.90;;;;;;4971741;28;20188;-66
2022/07/09 01:36:34;;;;;;;6.57;4.23;;;14.20;99.90;;;;;;4974169;28;20282;-66
2022/07/09 01:39:00;;;;;;;4.70;4.30;;;14.20;99.90;;;;;;4970778;28;21871;-66
2022/07/09 01:41:25;;;;;;;6.50;4.00;;;14.10;99.90;;;;;;4975934;28;20263;-66
2022/07/09 01:43:51;;;;;;;5.33;3.70;;;14.10;99.90;;;;;;4976745;28;20563;-66
2022/07/09 01:46:16;;;;;;;5.00;4.60;;;14.00;99.90;;;;;;4971744;28;20180;-66
2022/07/09 01:48:42;;;;;;;4.97;4.07;;;14.00;99.90;;;;;;4971397;28;20181;-66
2022/07/09 01:51:12;;;;;;;5.83;4.30;;;13.90;99.90;;;;;;4979133;28;20199;-66
2022/07/09 01:53:39;;;;;;;6.60;6.00;;;13.90;99.90;;;;;;4971369;28;20249;-66
2022/07/09 01:56:09;;;;;;;7.67;5.23;;;13.80;99.90;;;;;;4972086;28;20444;-66
2022/07/09 01:58:35;;;;;;;4.90;4.50;;;13.80;99.90;;;;;;4970418;28;20566;-66
2022/07/09 02:01:02;;;;;;;5.07;4.63;;;13.80;99.90;;;;;;4969833;28;20497;-66
2022/07/09 02:03:27;;;;;;;4.47;4.00;;;13.80;99.90;;;;;;4972789;28;20436;-66
2022/07/09 02:05:53;;;;;;;4.50;4.10;;;13.80;99.90;;;;;;4973749;28;20921;-66
2022/07/09 02:08:19;;;;;;;5.03;4.53;;;13.80;99.90;;;;;;4971025;28;20181;-66
2022/07/09 02:10:45;;;;;;;5.70;5.20;;;13.80;99.90;;;;;;4977907;28;20247;-66
2022/07/09 02:13:12;;;;;;;4.80;4.13;;;13.80;99.90;;;;;;4971149;28;20176;-66
2022/07/09 02:15:37;;;;;;;5.73;3.97;;;13.80;99.90;;;;;;4973954;28;20436;-66
2022/07/09 02:18:04;;;;;;;6.50;4.57;;;13.70;99.90;;;;;;4971275;28;20889;-66
2022/07/09 02:20:29;;;;;;;7.00;4.50;;;13.70;99.90;;;;;;4969384;28;20195;-66
2022/07/09 02:22:55;;;;;;;7.73;3.93;;;13.70;99.90;;;;;;4976770;28;20443;-66
2022/07/09 02:25:20;;;;;;;5.20;4.20;;;13.70;99.90;;;;;;4972609;28;20235;-66
2022/07/09 02:27:46;;;;;;;5.17;4.20;;;13.70;99.90;;;;;;4980065;28;20251;-66
2022/07/09 02:30:12;;;;;;;5.40;4.10;;;13.70;99.90;;;;;;4969586;28;20220;-66
2022/07/09 02:32:38;;;;;;;5.00;3.93;;;13.70;99.90;;;;;;4979305;28;20180;-66
2022/07/09 02:35:04;;;;;;;9.57;4.50;;;13.60;99.90;;;;;;4972334;28;20613;-66
2022/07/09 02:37:30;;;;;;;10.47;4.60;;;13.60;99.90;;;;;;4973177;28;20530;-68
2022/07/09 02:39:55;;;;;;;4.57;4.07;;;13.60;99.90;;;;;;4972010;28;20566;-66
2022/07/09 02:42:20;;;;;;;4.67;4.27;;;13.60;99.90;;;;;;4972562;28;20192;-66
2022/07/09 02:44:46;;;;;;;6.67;4.27;;;13.60;99.90;;;;;;4971282;28;20188;-66
2022/07/09 02:47:12;;;;;;;4.63;4.00;;;13.60;99.90;;;;;;4968614;28;20309;-66
2022/07/09 02:49:37;;;;;;;4.47;3.50;;;13.60;99.90;;;;;;4974687;28;20226;-66
2022/07/09 02:52:03;;;;;;;5.10;4.60;;;13.60;99.90;;;;;;4977420;28;20257;-66
2022/07/09 02:54:29;;;;;;;5.53;4.73;;;13.60;99.90;;;;;;4973820;28;20195;-66
2022/07/09 02:56:54;;;;;;;4.20;3.90;;;13.50;99.90;;;;;;4976532;28;20442;-66
2022/07/09 02:59:20;;;;;;;5.73;3.67;;;13.50;99.90;;;;;;4973445;28;20220;-66
2022/07/09 03:01:46;;;;;;;5.73;4.57;;;13.60;99.90;;;;;;4971368;28;20614;-66
2022/07/09 03:04:12;;;;;;;8.30;4.83;;;13.50;99.90;;;;;;4968437;28;20439;-65
2022/07/09 03:06:38;;;;;;;4.00;3.70;;;13.50;99.90;;;;;;4971413;28;20439;-66
2022/07/09 03:09:04;;;;;;;4.27;3.50;;;13.50;99.90;;;;;;4970765;28;20640;-66
2022/07/09 03:11:29;;;;;;;4.70;4.10;;;13.40;99.90;;;;;;4978931;28;20187;-66
2022/07/09 03:13:55;;;;;;;4.43;3.90;;;13.40;99.90;;;;;;4971490;28;20455;-66
2022/07/09 03:16:20;;;;;;;6.97;4.50;;;13.50;99.90;;;;;;4975390;28;20188;-66
2022/07/09 03:18:46;;;;;;;4.80;4.40;;;13.40;99.90;;;;;;4971572;28;20622;-66
2022/07/09 03:21:12;;;;;;;4.20;3.80;;;13.40;99.90;;;;;;4981908;28;20512;-65
2022/07/09 03:23:39;;;;;;;4.43;4.13;;;13.30;99.90;;;;;;4971024;28;20191;-66
2022/07/09 03:26:05;;;;;;;4.40;3.90;;;13.30;99.90;;;;;;4975472;28;20541;-65
2022/07/09 03:28:31;;;;;;;6.93;4.67;;;13.30;99.90;;;;;;4975313;28;20538;-66
2022/07/09 03:30:57;;;;;;;3.90;3.60;;;13.30;99.90;;;;;;4976200;28;21709;-66
2022/07/09 03:33:22;;;;;;;4.67;3.93;;;13.30;99.90;;;;;;4972790;28;20181;-66
2022/07/09 03:35:48;;;;;;;5.00;4.00;;;13.20;99.90;;;;;;4974555;28;20215;-66
2022/07/09 03:38:14;;;;;;;8.30;4.80;;;13.20;99.90;;;;;;4977187;28;20215;-66
2022/07/09 03:40:39;;;;;;;6.43;4.43;;;13.20;99.90;;;;;;4976936;28;20854;-66
2022/07/09 03:43:05;;;;;;;6.83;5.27;;;13.20;99.90;;;;;;4978633;28;20191;-65
2022/07/09 03:45:30;;;;;;;4.20;3.83;;;13.30;99.90;;;;;;4975825;28;20184;-66
2022/07/09 03:47:56;;;;;;;6.00;4.33;;;13.30;99.90;;;;;;4980086;28;20207;-66
2022/07/09 03:50:21;;;;;;;5.40;4.97;;;13.30;99.90;;;;;;4974257;28;20216;-66
2022/07/09 03:52:47;;;;;;;5.43;4.17;;;13.30;99.90;;;;;;4978441;28;20189;-66
2022/07/09 03:55:13;;;;;;;7.80;4.47;;;13.30;99.90;;;;;;4969990;28;20184;-66
2022/07/09 03:57:38;;;;;;;4.80;4.10;;;13.30;99.90;;;;;;4979549;28;20180;-66
2022/07/09 04:00:07;;;;;;;5.63;4.57;;;13.40;99.90;;;;;;4973385;28;20219;-66
2022/07/09 04:02:33;;;;;;;4.67;4.10;;;13.50;99.90;;;;;;4973965;28;20638;-66
2022/07/09 04:04:59;;;;;;;8.90;6.03;;;13.40;99.90;;;;;;4973943;28;20828;-66
2022/07/09 04:07:26;;;;;;;7.17;6.13;;;13.40;99.90;;;;;;4971496;28;20436;-66
2022/07/09 04:09:53;;;;;;;5.90;4.60;;;13.50;99.90;;;;;;4973372;28;20196;-66
2022/07/09 04:12:19;;;;;;;5.60;4.77;;;13.50;99.90;;;;;;4977422;28;20451;-66
2022/07/09 04:14:45;;;;;;;4.77;4.37;;;13.50;99.90;;;;;;4966073;28;20431;-66
2022/07/09 04:17:11;;;;;;;7.57;5.47;;;13.50;99.90;;;;;;4974115;28;20800;-66
2022/07/09 04:19:36;;;;;;;4.80;4.50;;;13.50;99.90;;;;;;4972417;28;20735;-66
2022/07/09 04:22:02;;;;;;;4.67;3.93;;;13.60;99.90;;;;;;4972829;28;20184;-66
2022/07/09 04:24:28;;;;;;;5.70;5.03;;;13.70;99.90;;;;;;4973513;28;20650;-66
2022/07/09 04:26:53;;;;;;;6.13;5.53;;;13.80;99.90;;;;;;4978299;28;20654;-66
2022/07/09 04:29:19;;;;;;;5.53;5.03;;;13.90;99.90;;;;;;4972154;28;20982;-66
2022/07/09 04:31:44;;;;;;;9.73;5.20;;;13.80;99.90;;;;;;4977237;28;20196;-66
2022/07/09 04:34:10;;;;;;;6.00;4.60;;;13.90;99.90;;;;;;4972840;28;20263;-66
2022/07/09 04:36:35;;;;;;;5.57;5.07;;;14.00;99.90;;;;;;4972682;28;20196;-66
2022/07/09 04:39:01;;;;;;;9.13;5.63;;;14.00;99.90;;;;;;4973266;28;20231;-66
2022/07/09 04:41:28;;;;;;;6.03;4.53;;;14.10;99.90;;;;;;4970821;28;20172;-66
2022/07/09 04:43:54;;;;;;;5.20;4.70;;;14.00;99.90;;;;;;4979578;28;20171;-66
2022/07/09 04:46:21;;;;;;;6.43;5.00;;;14.00;99.90;;;;;;4971127;28;20967;-66
2022/07/09 04:48:47;;;;;;;5.10;4.70;;;14.00;99.90;;;;;;4981720;28;20267;-66
2022/07/09 04:51:12;;;;;;;5.03;4.53;;;14.10;99.90;;;;;;4970616;28;20534;-66
2022/07/09 04:53:38;;;;;;;10.90;5.03;;;14.20;99.90;;;;;;4981162;28;20183;-66
2022/07/09 04:56:04;;;;;;;4.93;4.53;;;14.30;99.90;;;;;;4972108;28;20669;-66
2022/07/09 04:58:29;;;;;;;6.80;5.03;;;14.50;99.90;;;;;;4978798;28;20226;-66
2022/07/09 05:00:55;;;;;;;5.23;4.77;;;14.50;99.90;;;;;;4971961;28;20620;-66
2022/07/09 05:03:20;;;;;;;5.43;4.30;;;14.70;99.90;;;;;;4972839;28;20179;-66
2022/07/09 05:05:46;;;;;;;6.03;5.23;;;14.80;99.90;;;;;;4975203;28;20191;-66
2022/07/09 05:08:11;;;;;;;7.83;4.67;;;15.10;99.90;;;;;;4972793;28;20187;-66
2022/07/09 05:10:38;;;;;;;4.63;4.30;;;15.20;99.90;;;;;;4979935;28;20196;-66
2022/07/09 05:13:03;;;;;;;5.37;4.27;;;15.40;99.90;;;;;;4977727;28;20172;-66
2022/07/09 05:15:31;;;;;;;5.67;4.13;;;15.60;99.90;;;;;;4970615;28;20922;-66
2022/07/09 05:17:57;;;;;;;5.23;4.73;;;15.70;99.90;;;;;;4971805;28;20642;-67
2022/07/09 05:20:24;;;;;;;8.03;4.70;;;16.00;99.90;;;;;;4978939;28;20474;-66
2022/07/09 05:22:49;;;;;;;5.63;4.30;;;16.20;99.90;;;;;;4971402;28;20199;-66
2022/07/09 05:25:15;;;;;;;5.50;4.53;;;16.40;99.90;;;;;;4963391;28;20462;-67
2022/07/09 05:27:45;;;;;;;6.03;4.53;;;16.60;99.90;;;;;;4968190;28;20630;-66
2022/07/09 05:30:15;;;;;;;7.10;5.30;;;16.70;99.90;;;;;;4969542;28;20262;-66
2022/07/09 05:32:42;;;;;;;6.63;4.93;;;16.70;99.90;;;;;;4973036;28;20474;-66
2022/07/09 05:35:08;;;;;;;4.63;3.63;;;16.70;99.90;;;;;;4973948;28;20477;-66
2022/07/09 05:37:34;;;;;;;7.57;4.30;;;16.80;99.90;;;;;;4959938;28;20513;-66
2022/07/09 05:40:05;;;;;;;6.00;4.53;;;17.00;99.90;;;;;;4971356;28;21007;-66
2022/07/09 05:42:31;;;;;;;5.00;4.47;;;17.20;99.90;;;;;;4968437;28;20493;-66
2022/07/09 05:44:56;;;;;;;5.33;4.83;;;17.40;99.90;;;;;;4965293;28;20439;-66
2022/07/09 05:47:22;;;;;;;4.50;4.10;;;17.60;99.90;;;;;;4962065;28;20445;-66
2022/07/09 05:49:47;;;;;;;4.30;3.90;;;17.90;99.90;;;;;;4971897;28;20623;-66
2022/07/09 05:52:13;;;;;;;5.23;4.73;;;18.00;99.90;;;;;;4968051;28;20236;-66
2022/07/09 05:54:39;;;;;;;5.70;4.70;;;18.00;99.90;;;;;;4976144;28;20188;-66
2022/07/09 05:57:04;;;;;;;6.50;5.90;;;18.00;99.90;;;;;;4968102;28;20203;-66
2022/07/09 05:59:30;;;;;;;7.27;4.60;;;18.10;99.90;;;;;;4967335;28;20306;-66
2022/07/09 06:01:55;;;;;;;4.80;4.40;;;18.10;99.90;;;;;;4966865;28;20194;-66
2022/07/09 06:04:21;;;;;;;4.63;4.23;;;18.20;99.90;;;;;;4966939;28;20211;-66
2022/07/09 06:06:46;;;;;;;7.27;4.23;;;18.30;99.90;;;;;;4972544;28;20211;-66
2022/07/09 06:09:12;;;;;;;5.03;4.30;;;18.50;99.90;;;;;;4972812;28;20199;-67
2022/07/09 06:11:37;;;;;;;5.90;4.10;;;18.60;99.90;;;;;;4970579;28;20614;-67
2022/07/09 06:14:03;;;;;;;7.40;5.47;;;18.70;99.90;;;;;;4976375;28;20275;-67
2022/07/09 06:16:28;;;;;;;5.30;4.40;;;18.90;99.90;;;;;;4971858;28;20298;-67
2022/07/09 06:18:54;;;;;;;5.23;4.00;;;19.10;99.90;;;;;;4975445;28;20547;-67
2022/07/09 06:21:19;;;;;;;7.90;4.40;;;19.30;99.90;;;;;;4977189;28;20177;-67
2022/07/09 06:23:45;;;;;;;5.00;3.60;;;19.30;99.90;;;;;;4973557;28;20233;-67
2022/07/09 06:26:11;;;;;;;4.00;3.70;;;19.30;99.90;;;;;;4975421;28;20259;-67
2022/07/09 06:28:37;;;;;;;4.43;4.03;;;19.50;99.90;;;;;;4982531;28;20183;-67
2022/07/09 06:31:03;;;;;;;4.80;4.40;;;19.60;99.90;;;;;;4981042;28;20643;-67
2022/07/09 06:33:28;;;;;;;7.00;4.53;;;19.70;99.90;;;;;;4977818;28;20486;-67
2022/07/09 06:35:54;;;;;;;8.77;4.33;;;19.50;99.90;;;;;;4977187;28;20187;-67
2022/07/09 06:38:19;;;;;;;4.50;4.10;;;19.90;99.90;;;;;;4974067;28;20239;-67
2022/07/09 06:40:45;;;;;;;7.00;4.83;;;19.90;99.90;;;;;;4974753;28;21734;-67
2022/07/09 06:43:12;;;;;;;5.33;4.80;;;20.00;99.90;;;;;;4972345;28;20192;-67
2022/07/09 06:45:37;;;;;;;6.23;4.10;;;20.10;99.90;;;;;;4980291;28;20217;-67
2022/07/09 06:48:03;;;;;;;5.90;3.90;;;20.10;99.90;;;;;;4988014;28;20552;-67
2022/07/09 06:50:29;;;;;;;9.63;8.53;;;19.90;99.90;;;;;;4976628;28;20631;-67
2022/07/09 06:52:54;;;;;;;4.73;4.43;;;20.10;99.90;;;;;;4975468;28;20187;-67
2022/07/09 06:55:20;;;;;;;6.27;4.10;;;20.30;99.90;;;;;;4975034;28;20180;-66
2022/07/09 06:57:45;;;;;;;5.63;4.63;;;20.30;99.90;;;;;;4981860;28;20599;-67
2022/07/09 07:00:11;;;;;;;5.60;4.60;;;20.30;99.90;;;;;;4982544;28;20681;-67
2022/07/09 07:02:36;;;;;;;4.20;3.23;;;20.40;99.90;;;;;;4981887;28;20191;-67
2022/07/09 07:05:02;;;;;;;4.53;4.13;;;20.50;99.90;;;;;;4980727;28;20179;-67
2022/07/09 07:07:28;;;;;;;7.00;5.73;;;20.70;99.90;;;;;;4977570;28;20565;-67
2022/07/09 07:09:53;;;;;;;4.70;4.30;;;20.80;99.90;;;;;;4981522;28;20235;-67
2022/07/09 07:12:19;;;;;;;6.07;3.70;;;21.20;99.90;;;;;;4981853;28;20180;-67
2022/07/09 07:14:44;;;;;;;4.13;3.57;;;21.80;99.90;;;;;;4984483;28;20219;-67
2022/07/09 07:17:10;;;;;;;3.50;3.20;;;22.30;99.90;;;;;;4972784;28;20192;-67
2022/07/09 07:19:35;;;;;;;5.50;3.60;;;22.70;99.90;;;;;;4981106;28;20239;-67
2022/07/09 07:22:01;;;;;;;6.50;4.30;;;23.10;99.10;;;;;;4977666;28;20207;-67
2022/07/09 07:24:27;;;;;;;3.30;3.10;;;23.50;96.50;;;;;;4978448;28;20172;-67
2022/07/09 07:26:53;;;;;;;3.90;3.50;;;23.70;95.70;;;;;;4975591;28;20164;-67
2022/07/09 07:29:19;;;;;;;6.37;3.37;;;23.70;95.40;;;;;;4981462;28;20188;-67
2022/07/09 07:31:44;;;;;;;8.53;3.97;;;23.50;95.30;;;;;;4981576;28;20510;-67
2022/07/09 07:34:10;;;;;;;3.40;3.10;;;23.60;94.80;;;;;;4983417;28;20175;-67
2022/07/09 07:36:35;;;;;;;3.23;2.93;;;23.50;94.20;;;;;;4982906;28;20172;-67
2022/07/09 07:39:01;;;;;;;4.10;3.70;;;23.40;94.00;;;;;;4983231;28;20219;-67
2022/07/09 07:41:27;;;;;;;2.40;2.20;;;23.10;93.30;;;;;;4974568;28;20180;-66
2022/07/09 07:43:52;;;;;;;5.67;2.57;;;23.40;92.00;;;;;;4978817;28;20432;-67
2022/07/09 07:46:18;;;;;;;3.90;2.70;;;23.80;91.90;;;;;;4988572;28;20179;-67
2022/07/09 07:48:43;;;;;;;5.63;3.67;;;24.20;91.00;;;;;;4980476;28;20672;-67
2022/07/09 07:51:09;;;;;;;4.00;2.60;;;24.20;90.20;;;;;;4980267;28;20258;-67
2022/07/09 07:53:35;;;;;;;3.87;2.33;;;24.40;89.10;;;;;;4978230;28;20212;-67
2022/07/09 07:56:02;;;;;;;3.83;2.63;;;24.50;87.70;;;;;;4980825;28;20859;-67
2022/07/09 07:58:27;;;;;;;4.13;3.17;;;24.50;86.70;;;;;;4979394;28;20258;-67
2022/07/09 08:00:53;;;;;;;5.13;2.90;;;24.80;86.00;;;;;;4982565;28;20533;-67
2022/07/09 08:03:18;;;;;;;3.27;2.73;;;25.10;86.00;;;;;;4984837;28;20180;-67
2022/07/09 08:05:44;;;;;;;8.10;2.90;;;25.10;84.30;;;;;;4981093;28;20195;-67
2022/07/09 08:08:09;;;;;;;5.23;2.60;;;24.70;87.00;;;;;;4975352;28;20256;-67
2022/07/09 08:10:35;;;;;;;8.00;7.13;;;25.10;85.00;;;;;;4982663;28;20208;-66
2022/07/09 08:13:00;;;;;;;4.20;2.53;;;25.60;84.70;;;;;;4984726;28;20217;-67
2022/07/09 08:15:26;;;;;;;2.43;2.20;;;26.00;82.40;;;;;;4976708;28;20191;-67
2022/07/09 08:17:53;;;;;;;2.50;2.30;;;25.90;82.00;;;;;;4981315;28;20192;-67
2022/07/09 08:20:19;;;;;;;2.83;1.93;;;25.40;82.70;;;;;;4985033;28;20204;-67
2022/07/09 08:22:45;;;;;;;4.37;2.30;;;25.80;83.50;;;;;;4972191;28;20494;-67
2022/07/09 08:25:11;;;;;;;2.43;2.23;;;25.40;83.70;;;;;;4971877;28;20428;-67
2022/07/09 08:27:36;;;;;;;2.60;2.40;;;25.10;83.90;;;;;;4970470;28;20268;-67
2022/07/09 08:30:02;;;;;;;4.17;2.60;;;25.00;84.30;;;;;;4970781;28;20678;-67
2022/07/09 08:32:28;;;;;;;2.67;2.40;;;24.70;85.70;;;;;;4971870;28;20243;-67
2022/07/09 08:34:54;;;;;;;2.20;2.00;;;24.80;84.90;;;;;;4983629;28;20422;-67
2022/07/09 08:37:19;;;;;;;1.93;1.83;;;24.70;85.00;;;;;;4984502;28;20517;-67
2022/07/09 08:39:45;;;;;;;2.30;2.07;;;25.10;85.30;;;;;;4979236;28;20222;-67
2022/07/09 08:42:11;;;;;;;2.70;2.50;;;25.60;83.90;;;;;;4983178;28;20180;-67
2022/07/09 08:44:39;;;;;;;5.67;2.63;;;25.80;81.80;;;;;;4986204;28;20180;-67
2022/07/09 08:47:05;;;;;;;5.73;2.50;;;25.50;82.80;;;;;;4975316;28;20180;-67
2022/07/09 08:49:31;;;;;;;3.90;2.57;;;25.40;82.50;;;;;;4979187;28;20475;-67
2022/07/09 08:51:57;;;;;;;5.23;2.43;;;25.70;82.30;;;;;;4978144;28;20486;-67
2022/07/09 08:54:23;;;;;;;2.63;2.43;;;26.40;79.80;;;;;;4986817;28;20430;-67
2022/07/09 08:56:53;;;;;;;3.13;2.50;;;27.00;78.30;;;;;;4976958;28;20180;-67
2022/07/09 08:59:19;;;;;;;2.20;2.00;;;27.30;77.70;;;;;;4975181;28;20496;-67
2022/07/09 09:01:44;;;;;;;3.47;2.23;;;27.50;75.90;;;;;;4983949;28;20537;-67
2022/07/09 09:04:10;;;;;;;2.40;2.20;;;27.50;74.60;;;;;;4975810;28;20176;-67
2022/07/09 09:06:42;;;;;;;2.60;2.30;;;27.00;76.00;;;;;;4984734;28;20182;-67
2022/07/09 09:09:10;;;;;;;2.90;2.10;;;27.50;75.50;;;;;;4975105;28;20225;-67
2022/07/09 09:11:36;;;;;;;5.20;2.80;;;27.70;73.30;;;;;;4985623;28;20471;-67
2022/07/09 09:14:02;;;;;;;2.90;2.20;;;27.70;73.40;;;;;;4982877;28;20442;-67
2022/07/09 09:16:28;;;;;;;3.83;2.53;;;28.10;71.80;;;;;;4974639;28;20439;-67
2022/07/09 09:18:54;;;;;;;2.60;2.40;;;28.10;71.10;;;;;;4982398;28;20486;-67
2022/07/09 09:21:24;;;;;;;3.77;2.43;;;28.30;70.40;;;;;;4978586;28;20231;-67
2022/07/09 09:23:55;;;;;;;7.43;2.13;;;28.70;70.30;;;;;;4972667;28;20734;-67
2022/07/09 09:26:23;;;;;;;2.73;2.50;;;28.60;69.20;;;;;;4982496;28;20439;-67
2022/07/09 09:28:51;;;;;;;2.70;2.00;;;29.00;69.30;;;;;;4973058;28;20446;-67
2022/07/09 09:31:20;;;;;;;3.33;2.50;;;28.70;67.20;;;;;;4982035;28;20485;-67
2022/07/09 09:33:46;;;;;;;3.20;2.23;;;28.10;68.60;;;;;;4976000;28;20987;-67
2022/07/09 09:36:33;;;;;;;3.90;2.30;;;27.70;69.00;;;;;;4981132;28;20534;-67
2022/07/09 09:39:19;;;;;;;5.10;2.27;;;27.20;72.10;;;;;;4971335;28;20229;-67
2022/07/09 09:42:10;;;;;;;7.13;5.10;;;26.80;73.00;;;;;;4981799;28;20443;-67
2022/07/09 09:44:39;;;;;;;4.60;4.20;;;26.60;71.50;;;;;;4976534;28;20535;-67
2022/07/09 09:47:07;;;;;;;2.73;2.53;;;26.40;71.90;;;;;;4971586;28;20440;-67
2022/07/09 09:49:34;;;;;;;2.33;2.13;;;26.80;69.90;;;;;;4995859;23;20933;-63
2022/07/09 09:52:05;;;;;;;2.87;2.37;;;27.60;68.60;;;;;;4992053;28;20446;-63
2022/07/09 09:54:45;;;;;;;4.90;3.33;;;28.40;67.90;;;;;;4990455;28;20443;-63
2022/07/09 09:57:13;;;;;;;3.37;2.70;;;29.60;65.60;;;;;;4996389;28;20550;-65
2022/07/09 09:59:40;;;;;;;3.60;2.53;;;30.50;62.20;;;;;;4998192;28;20466;-65
2022/07/09 10:02:07;;;;;;;2.97;2.67;;;30.40;60.90;;;;;;4988198;28;20530;-66
2022/07/09 10:04:32;;;;;;;2.17;1.97;;;31.10;59.30;;;;;;4989996;28;20435;-66
2022/07/09 10:06:58;;;;;;;5.27;2.30;;;31.00;58.30;;;;;;4989269;28;20449;-66
2022/07/09 10:09:24;;;;;;;1.80;1.70;;;31.60;57.50;;;;;;4988749;28;20569;-66
2022/07/09 10:11:50;;;;;;;2.60;2.30;;;31.10;56.00;;;;;;4993017;28;20513;-66
2022/07/09 10:14:16;;;;;;;3.80;2.13;;;30.50;57.00;;;;;;4990598;28;20188;-66
2022/07/09 10:16:42;;;;;;;3.50;1.83;;;29.50;57.50;;;;;;5000256;28;20182;-66
2022/07/09 10:19:07;;;;;;;2.97;1.97;;;28.50;58.50;;;;;;4993685;28;20996;-66
2022/07/09 10:21:41;;;;;;;1.90;1.80;;;28.20;59.00;;;;;;4994891;28;20560;-71
2022/07/09 10:24:09;;;;;;;2.40;1.70;;;27.60;59.20;;;;;;4998900;28;20171;-69
2022/07/09 10:26:46;;;;;;;1.87;1.77;;;26.70;62.30;;;;;;5001664;28;20438;-67
2022/07/09 10:29:28;;;;;;;1.70;1.60;;;26.30;60.50;;;;;;4993028;28;20854;-70
2022/07/09 10:31:55;;;;;;;1.67;1.57;;;26.80;59.20;;;;;;4989729;28;20880;-72
2022/07/09 10:34:32;;;;;;;3.17;2.97;;;28.20;57.90;;;;;;4997024;28;20433;-73
2022/07/09 10:37:02;;;;;;;3.00;1.90;;;30.20;56.90;;;;;;4997597;28;20500;-73
2022/07/09 10:39:29;;;;;;;2.30;2.10;;;32.20;53.30;;;;;;4994913;28;20476;-71
2022/07/09 10:42:01;;;;;;;2.03;1.80;;;32.60;51.50;;;;;;4993411;28;20944;-73
2022/07/09 10:44:32;;;;;;;2.17;2.00;;;32.90;50.60;;;;;;5003331;28;20452;-72
2022/07/09 10:46:58;;;;;;;2.00;1.90;;;34.70;50.80;;;;;;4992980;28;20489;-72
2022/07/09 10:49:26;;;;;;;2.27;1.83;;;35.50;48.80;;;;;;5000631;28;20470;-75
2022/07/09 10:51:58;;;;;;;1.77;1.67;;;36.40;48.10;;;;;;4991267;28;20176;-69
2022/07/09 10:54:24;;;;;;;3.63;2.23;;;35.70;44.70;;;;;;4999513;28;20840;-69
2022/07/09 10:56:50;;;;;;;2.27;2.07;;;36.30;43.10;;;;;;5001581;28;20874;-68
2022/07/09 10:59:19;;;;;;;1.90;1.53;;;38.10;40.20;;;;;;5001444;28;20548;-68
2022/07/09 11:01:45;;;;;;;2.03;1.83;;;39.00;38.40;;;;;;5001205;28;20500;-68
2022/07/09 11:04:12;;;;;;;1.83;1.73;;;38.10;38.10;;;;;;4994265;28;20438;-68
2022/07/09 11:06:49;;;;;;;1.87;1.73;;;36.20;39.50;;;;;;4995888;28;20238;-69
2022/07/09 11:09:16;;;;;;;2.17;2.07;;;33.90;41.40;;;;;;5004215;28;20469;-67
2022/07/09 11:11:42;;;;;;;2.23;1.90;;;32.40;43.00;;;;;;4997239;28;21036;-70
2022/07/09 11:14:09;;;;;;;2.93;2.27;;;31.60;44.30;;;;;;5002623;28;20444;-69
2022/07/09 11:16:35;;;;;;;2.60;2.40;;;30.60;45.40;;;;;;4996965;28;20910;-69
2022/07/09 11:19:12;;;;;;;2.20;2.00;;;29.90;47.00;;;;;;4997231;28;20502;-68
2022/07/09 11:21:38;;;;;;;2.10;2.00;;;29.20;48.20;;;;;;4994003;28;20176;-68
2022/07/09 11:24:13;;;;;;;1.93;1.83;;;28.30;49.70;;;;;;5002282;28;20434;-68
2022/07/09 11:26:38;;;;;;;3.17;1.90;;;27.80;51.30;;;;;;5004380;28;20238;-68
2022/07/09 11:29:07;;;;;;;2.73;2.53;;;27.60;52.00;;;;;;5002529;28;20442;-69
2022/07/09 11:31:33;;;;;;;3.23;2.37;;;27.50;52.70;;;;;;4997697;28;20184;-67
2022/07/09 11:34:13;;;;;;;2.70;2.50;;;27.60;53.00;;;;;;4995394;28;20442;-70
2022/07/09 11:36:42;;;;;;;3.37;3.07;;;27.30;53.30;;;;;;4996131;28;20706;-70
2022/07/09 11:39:08;;;;;;;2.67;2.30;;;27.40;53.60;;;;;;4998549;28;20455;-70
2022/07/09 11:41:44;;;;;;;4.27;2.23;;;27.50;53.60;;;;;;4995377;28;20485;-70
2022/07/09 11:44:11;;;;;;;2.50;2.10;;;27.80;53.60;;;;;;5001031;28;20800;-70
2022/07/09 11:46:38;;;;;;;2.70;2.43;;;27.80;53.20;;;;;;5002768;28;20801;-71
2022/07/09 11:49:14;;;;;;;4.00;2.10;;;27.70;53.30;;;;;;5005469;28;20433;-69
2022/07/09 11:51:39;;;;;;;4.20;2.23;;;27.50;54.20;;;;;;4999903;28;20454;-70
2022/07/09 11:54:05;;;;;;;3.60;2.10;;;27.60;53.30;;;;;;5000076;28;20838;-70
2022/07/09 11:56:48;;;;;;;2.17;1.93;;;27.70;53.40;;;;;;5002970;28;20194;-70
2022/07/09 11:59:24;;;;;;;2.30;2.10;;;27.90;52.90;;;;;;5004327;28;20191;-72
2022/07/09 12:01:50;;;;;;;2.60;2.10;;;28.00;53.10;;;;;;5001804;28;20778;-72
2022/07/09 12:04:22;;;;;;;1.93;1.83;;;28.40;52.60;;;;;;5000497;28;20548;-72
2022/07/09 12:06:49;;;;;;;5.17;3.23;;;28.50;52.00;;;;;;4990622;28;20286;-70
2022/07/09 12:09:16;;;;;;;3.37;3.00;;;28.80;51.80;;;;;;4999586;28;20669;-66
2022/07/09 12:11:41;;;;;;;2.83;2.40;;;29.30;51.20;;;;;;5000942;28;20441;-70
2022/07/09 12:14:07;;;;;;;3.40;2.10;;;28.90;51.30;;;;;;5000310;28;20442;-70
2022/07/09 12:16:32;;;;;;;5.03;4.03;;;28.70;52.50;;;;;;4994509;28;20653;-70
2022/07/09 12:18:58;;;;;;;3.10;2.50;;;29.20;51.90;;;;;;5003921;28;20333;-70
2022/07/09 12:21:24;;;;;;;2.53;2.33;;;29.30;51.50;;;;;;5004318;28;20174;-70
2022/07/09 12:23:49;;;;;;;2.20;1.90;;;28.60;52.20;;;;;;5001298;28;20199;-70
2022/07/09 12:26:15;;;;;;;2.17;1.70;;;28.60;51.70;;;;;;4984406;28;20180;-69
2022/07/09 12:28:40;;;;;;;2.20;2.10;;;28.90;51.90;;;;;;4993451;28;20215;-70
2022/07/09 12:31:06;;;;;;;2.23;2.00;;;30.60;51.10;;;;;;5003989;28;20722;-70
2022/07/09 12:33:31;;;;;;;2.50;2.30;;;32.60;48.70;;;;;;5006933;28;20214;-70
2022/07/09 12:35:57;;;;;;;3.57;1.97;;;33.60;46.70;;;;;;4990003;28;20172;-71
2022/07/09 12:38:22;;;;;;;1.83;1.73;;;34.00;45.70;;;;;;4995576;28;20197;-70
2022/07/09 12:40:48;;;;;;;1.90;1.80;;;33.40;45.10;;;;;;4996415;28;20211;-70
2022/07/09 12:43:13;;;;;;;2.30;1.70;;;32.40;45.80;;;;;;4996039;28;20230;-70